createdAt,value
2018-07-20T00:02:00.394Z,27.37
2018-07-20T00:05:11.720Z,27.26
2018-07-20T00:08:24.121Z,27.10
2018-07-20T00:11:37.153Z,27.03
2018-07-20T00:14:46.670Z,26.89
2018-07-20T00:17:54.256Z,26.89
2018-07-20T00:21:03.845Z,26.93
2018-07-20T00:24:13.562Z,26.87
2018-07-20T00:27:24.808Z,26.54
2018-07-20T00:30:34.498Z,27.31
2018-07-20T00:33:45.099Z,27.47
2018-07-20T00:36:54.634Z,27.62
2018-07-20T00:40:04.375Z,27.57
2018-07-20T00:43:13.811Z,27.39
2018-07-20T00:46:23.438Z,27.30
2018-07-20T00:49:33.013Z,27.47
2018-07-20T00:52:41.520Z,26.71
2018-07-20T00:55:50.034Z,27.32
2018-07-20T00:58:59.531Z,27.31
2018-07-20T01:02:10.012Z,27.28
2018-07-20T01:05:18.168Z,27.34
2018-07-20T01:08:27.399Z,27.36
2018-07-20T01:11:35.834Z,27.42
2018-07-20T01:14:45.328Z,27.33
2018-07-20T01:17:54.839Z,27.42
2018-07-20T01:21:04.695Z,27.64
2018-07-20T01:24:15.917Z,27.80
2018-07-20T01:27:25.367Z,27.36
2018-07-20T01:30:39.280Z,27.49
2018-07-20T01:33:49.347Z,27.40
2018-07-20T01:36:58.923Z,27.31
2018-07-20T01:40:08.371Z,27.22
2018-07-20T01:43:17.610Z,27.27
2018-07-20T01:46:28.126Z,27.23
2018-07-20T01:49:40.430Z,27.15
2018-07-20T01:52:49.936Z,27.16
2018-07-20T01:56:08.708Z,27.31
2018-07-20T01:59:23.855Z,27.22
2018-07-20T02:02:48.420Z,27.22
2018-07-20T02:06:02.480Z,27.24
2018-07-20T02:09:11.737Z,27.22
2018-07-20T02:12:20.542Z,27.07
2018-07-20T02:15:33.913Z,26.93
2018-07-20T02:18:41.337Z,26.93
2018-07-20T02:21:50.078Z,26.83
2018-07-20T02:24:28.961Z,26.68
2018-07-20T02:27:00.790Z,26.59
2018-07-20T02:29:34.103Z,26.48
2018-07-20T02:32:05.874Z,26.50
2018-07-20T02:34:37.826Z,26.56
2018-07-20T02:37:10.180Z,26.54
2018-07-20T02:39:42.891Z,26.46
2018-07-20T02:42:15.044Z,26.36
2018-07-20T02:44:46.863Z,26.26
2018-07-20T02:47:19.773Z,26.20
2018-07-20T02:49:51.785Z,26.01
2018-07-20T02:52:23.200Z,25.94
2018-07-20T02:54:54.655Z,25.84
2018-07-20T02:57:27.237Z,25.86
2018-07-20T02:59:59.591Z,25.81
2018-07-20T03:02:30.898Z,25.66
2018-07-20T03:05:03.134Z,25.61
2018-07-20T03:07:34.424Z,25.61
2018-07-20T03:10:06.730Z,25.56
2018-07-20T03:12:38.284Z,25.53
2018-07-20T03:15:09.692Z,25.49
2018-07-20T03:17:41.995Z,25.42
2018-07-20T03:20:13.380Z,25.30
2018-07-20T03:22:45.639Z,25.37
2018-07-20T03:25:17.964Z,25.38
2018-07-20T03:27:50.312Z,25.42
2018-07-20T03:30:21.790Z,25.51
2018-07-20T03:32:53.550Z,25.53
2018-07-20T03:35:25.129Z,25.45
2018-07-20T03:37:56.473Z,25.44
2018-07-20T03:40:27.807Z,25.42
2018-07-20T03:42:59.107Z,25.41
2018-07-20T03:45:30.608Z,25.46
2018-07-20T03:48:02.105Z,25.50
2018-07-20T03:50:33.519Z,25.51
2018-07-20T03:53:04.870Z,25.38
2018-07-20T03:55:36.261Z,25.48
2018-07-20T03:58:07.521Z,25.52
2018-07-20T04:00:38.813Z,25.49
2018-07-20T04:03:10.181Z,25.50
2018-07-20T04:05:41.567Z,25.69
2018-07-20T04:08:12.812Z,25.93
2018-07-20T04:10:45.090Z,26.09
2018-07-20T04:13:16.829Z,26.12
2018-07-20T04:15:48.130Z,26.27
2018-07-20T04:18:20.153Z,26.35
2018-07-20T04:20:52.441Z,26.50
2018-07-20T04:23:22.974Z,26.70
2018-07-20T04:25:54.267Z,26.85
2018-07-20T04:28:25.690Z,26.98
2018-07-20T04:30:57.096Z,27.25
2018-07-20T04:33:28.844Z,27.42
2018-07-20T04:36:00.164Z,27.38
2018-07-20T04:38:31.647Z,27.85
2018-07-20T04:41:03.316Z,28.11
2018-07-20T04:43:35.162Z,28.24
2018-07-20T04:46:07.353Z,28.27
2018-07-20T04:48:38.761Z,28.01
2018-07-20T04:51:10.220Z,27.75
2018-07-20T04:53:42.869Z,27.74
2018-07-20T04:56:14.258Z,27.85
2018-07-20T04:58:45.709Z,28.06
2018-07-20T05:01:18.110Z,28.28
2018-07-20T05:03:50.099Z,28.36
2018-07-20T05:06:25.502Z,28.49
2018-07-20T05:08:56.950Z,28.60
2018-07-20T05:11:28.475Z,28.69
2018-07-20T05:14:00.740Z,28.87
2018-07-20T05:16:32.163Z,29.13
2018-07-20T05:19:03.953Z,29.62
2018-07-20T05:21:38.383Z,29.78
2018-07-20T05:24:15.501Z,29.64
2018-07-20T05:26:51.289Z,29.41
2018-07-20T05:29:24.921Z,28.94
2018-07-20T05:32:04.178Z,29.09
2018-07-20T05:34:39.502Z,29.18
2018-07-20T05:37:10.884Z,29.68
2018-07-20T05:39:44.299Z,29.86
2018-07-20T05:42:16.420Z,30.00
2018-07-20T05:44:48.489Z,30.09
2018-07-20T05:47:20.412Z,30.17
2018-07-20T05:49:52.413Z,30.46
2018-07-20T05:52:24.850Z,30.84
2018-07-20T05:54:57.706Z,31.15
2018-07-20T05:57:29.768Z,31.67
2018-07-20T06:00:01.340Z,32.51
2018-07-20T06:02:32.513Z,33.19
2018-07-20T06:05:04.485Z,33.58
2018-07-20T06:07:37.890Z,33.89
2018-07-20T06:10:10.091Z,34.14
2018-07-20T06:12:42.451Z,34.47
2018-07-20T06:15:15.994Z,34.75
2018-07-20T06:17:48.601Z,34.99
2018-07-20T06:20:20.697Z,35.21
2018-07-20T06:22:52.722Z,35.52
2018-07-20T06:25:23.990Z,36.12
2018-07-20T06:27:56.389Z,36.88
2018-07-20T06:30:28.201Z,37.22
2018-07-20T06:33:01.596Z,37.01
2018-07-20T06:35:33.262Z,36.92
2018-07-20T06:38:04.732Z,36.64
2018-07-20T06:40:36.221Z,36.40
2018-07-20T06:43:09.895Z,36.22
2018-07-20T06:45:42.316Z,36.31
2018-07-20T06:48:15.240Z,36.40
2018-07-20T06:50:47.631Z,36.84
2018-07-20T06:53:20.944Z,37.32
2018-07-20T06:55:52.321Z,37.75
2018-07-20T06:58:24.083Z,37.87
2018-07-20T07:00:58.509Z,37.76
2018-07-20T07:03:31.313Z,37.81
2018-07-20T07:06:02.428Z,37.94
2018-07-20T07:08:35.659Z,37.77
2018-07-20T07:11:07.369Z,38.13
2018-07-20T07:13:41.575Z,37.92
2018-07-20T07:16:16.029Z,37.94
2018-07-20T07:18:47.850Z,38.13
2018-07-20T07:21:21.131Z,38.67
2018-07-20T07:23:53.342Z,38.63
2018-07-20T07:26:27.735Z,38.56
2018-07-20T07:29:11.918Z,39.01
2018-07-20T07:31:48.347Z,39.47
2018-07-20T07:34:20.414Z,39.78
2018-07-20T07:36:52.790Z,39.48
2018-07-20T07:39:26.073Z,39.63
2018-07-20T07:41:59.047Z,39.45
2018-07-20T07:44:30.512Z,39.03
2018-07-20T07:47:03.376Z,38.87
2018-07-20T07:49:34.871Z,38.59
2018-07-20T07:52:09.555Z,38.64
2018-07-20T07:54:44.278Z,38.74
2018-07-20T07:57:16.808Z,38.75
2018-07-20T07:59:51.082Z,38.94
2018-07-20T08:02:23.317Z,39.34
2018-07-20T08:04:58.932Z,39.54
2018-07-20T08:07:33.526Z,39.70
2018-07-20T08:10:05.691Z,39.76
2018-07-20T08:12:39.844Z,40.23
2018-07-20T08:15:13.943Z,40.51
2018-07-20T08:17:49.851Z,40.74
2018-07-20T08:20:23.137Z,40.80
2018-07-20T08:22:57.193Z,40.70
2018-07-20T08:25:30.561Z,40.23
2018-07-20T08:28:02.546Z,40.37
2018-07-20T08:30:36.109Z,40.54
2018-07-20T08:33:09.551Z,40.65
2018-07-20T08:35:42.876Z,40.20
2018-07-20T08:38:15.941Z,39.97
2018-07-20T08:40:49.509Z,39.76
2018-07-20T08:43:25.944Z,39.58
2018-07-20T08:45:58.229Z,39.50
2018-07-20T08:48:33.659Z,39.59
2018-07-20T08:51:05.906Z,39.65
2018-07-20T08:53:40.502Z,39.16
2018-07-20T08:56:14.252Z,39.40
2018-07-20T08:58:46.429Z,39.10
2018-07-20T09:01:17.866Z,39.13
2018-07-20T09:03:52.081Z,39.29
2018-07-20T09:06:24.956Z,39.59
2018-07-20T09:08:59.079Z,39.89
2018-07-20T09:11:31.990Z,40.07
2018-07-20T09:14:05.563Z,40.36
2018-07-20T09:16:39.670Z,40.73
2018-07-20T09:19:14.002Z,41.15
2018-07-20T09:21:45.477Z,41.37
2018-07-20T09:24:18.040Z,41.21
2018-07-20T09:26:51.603Z,41.35
2018-07-20T09:29:23.842Z,41.35
2018-07-20T09:31:56.899Z,41.46
2018-07-20T09:34:30.984Z,41.27
2018-07-20T09:37:06.104Z,40.91
2018-07-20T09:39:38.062Z,41.17
2018-07-20T09:42:10.454Z,41.45
2018-07-20T09:44:44.856Z,41.43
2018-07-20T09:47:17.527Z,41.58
2018-07-20T09:49:50.944Z,41.67
2018-07-20T09:52:26.659Z,41.62
2018-07-20T09:55:00.120Z,41.36
2018-07-20T09:57:34.433Z,41.69
2018-07-20T10:00:09.331Z,41.88
2018-07-20T10:02:46.638Z,42.06
2018-07-20T10:05:18.791Z,42.37
2018-07-20T10:07:51.151Z,42.30
2018-07-20T10:10:23.446Z,42.02
2018-07-20T10:13:02.473Z,42.00
2018-07-20T10:15:36.379Z,42.43
2018-07-20T10:18:08.241Z,42.95
2018-07-20T10:20:41.027Z,43.29
2018-07-20T10:23:16.688Z,43.12
2018-07-20T10:25:49.082Z,43.18
2018-07-20T10:28:23.422Z,43.39
2018-07-20T10:30:56.257Z,43.63
2018-07-20T10:33:28.346Z,43.71
2018-07-20T10:36:01.041Z,43.27
2018-07-20T10:38:34.738Z,43.17
2018-07-20T10:41:10.188Z,43.39
2018-07-20T10:43:44.070Z,43.41
2018-07-20T10:46:16.614Z,43.70
2018-07-20T10:48:50.308Z,43.64
2018-07-20T10:51:22.605Z,43.58
2018-07-20T10:53:56.257Z,43.62
2018-07-20T10:56:27.823Z,44.00
2018-07-20T10:59:00.575Z,43.90
2018-07-20T11:01:33.542Z,43.44
2018-07-20T11:04:08.291Z,43.77
2018-07-20T11:06:44.027Z,43.93
2018-07-20T11:09:16.720Z,43.45
2018-07-20T11:11:51.990Z,43.17
2018-07-20T11:14:26.634Z,43.49
2018-07-20T11:17:00.964Z,43.36
2018-07-20T11:19:37.702Z,43.67
2018-07-20T11:22:20.075Z,43.97
2018-07-20T11:25:01.235Z,43.76
2018-07-20T11:27:39.276Z,44.00
2018-07-20T11:30:12.212Z,44.37
2018-07-20T11:32:46.348Z,44.76
2018-07-20T11:35:21.775Z,44.31
2018-07-20T11:38:00.205Z,44.45
2018-07-20T11:40:33.368Z,44.35
2018-07-20T11:43:06.678Z,44.30
2018-07-20T11:45:38.386Z,44.60
2018-07-20T11:48:11.559Z,45.19
2018-07-20T11:50:44.532Z,44.99
2018-07-20T11:53:20.091Z,44.93
2018-07-20T11:55:51.780Z,45.07
2018-07-20T11:58:23.163Z,44.80
2018-07-20T12:00:56.533Z,44.92
2018-07-20T12:03:28.365Z,45.12
2018-07-20T12:06:04.427Z,45.51
2018-07-20T12:08:35.964Z,45.47
2018-07-20T12:11:07.982Z,45.21
2018-07-20T12:13:39.289Z,45.01
2018-07-20T12:16:10.398Z,44.37
2018-07-20T12:18:42.425Z,44.16
2018-07-20T12:21:14.144Z,44.37
2018-07-20T12:23:46.482Z,44.41
2018-07-20T12:26:18.647Z,44.36
2018-07-20T12:28:50.003Z,44.36
2018-07-20T12:31:22.148Z,44.20
2018-07-20T12:33:55.624Z,44.37
2018-07-20T12:36:28.984Z,44.57
2018-07-20T12:39:01.356Z,44.67
2018-07-20T12:41:35.132Z,44.47
2018-07-20T12:44:10.777Z,45.14
2018-07-20T12:46:46.792Z,44.68
2018-07-20T12:49:20.367Z,44.45
2018-07-20T12:51:53.064Z,44.37
2018-07-20T12:54:26.800Z,44.25
2018-07-20T12:56:58.543Z,44.07
2018-07-20T12:59:30.470Z,44.08
2018-07-20T13:02:01.429Z,44.36
2018-07-20T13:04:37.240Z,44.38
2018-07-20T13:07:13.655Z,44.48
2018-07-20T13:09:45.308Z,44.69
2018-07-20T13:12:17.489Z,44.82
2018-07-20T13:14:48.967Z,44.77
2018-07-20T13:17:22.287Z,44.94
2018-07-20T13:19:54.635Z,44.81
2018-07-20T13:22:27.913Z,44.88
2018-07-20T13:25:00.734Z,44.99
2018-07-20T13:27:33.294Z,45.14
2018-07-20T13:30:10.087Z,45.40
2018-07-20T13:32:41.332Z,45.88
2018-07-20T13:35:18.250Z,46.21
2018-07-20T13:37:50.499Z,46.47
2018-07-20T13:40:22.452Z,46.30
2018-07-20T13:42:53.827Z,46.38
2018-07-20T13:45:27.325Z,46.18
2018-07-20T13:48:02.116Z,45.97
2018-07-20T13:50:39.555Z,45.83
2018-07-20T13:53:12.143Z,45.04
2018-07-20T13:55:47.044Z,44.41
2018-07-20T13:58:22.664Z,43.91
2018-07-20T14:01:00.360Z,44.39
2018-07-20T14:03:34.803Z,44.71
2018-07-20T14:06:08.549Z,44.90
2018-07-20T14:08:52.413Z,45.30
2018-07-20T14:11:38.707Z,45.44
2018-07-20T14:14:15.646Z,45.65
2018-07-20T14:16:48.842Z,46.26
2018-07-20T14:19:33.887Z,46.62
2018-07-20T14:22:06.359Z,46.61
2018-07-20T14:24:40.765Z,46.19
2018-07-20T14:27:14.611Z,45.40
2018-07-20T14:29:46.794Z,45.68
2018-07-20T14:32:21.665Z,45.89
2018-07-20T14:34:55.785Z,45.65
2018-07-20T14:37:29.831Z,45.54
2018-07-20T14:40:02.849Z,45.25
2018-07-20T14:42:34.147Z,44.88
2018-07-20T14:45:07.839Z,44.81
2018-07-20T14:47:40.967Z,44.86
2018-07-20T14:50:13.108Z,44.82
2018-07-20T14:52:44.799Z,45.26
2018-07-20T14:55:15.892Z,45.30
2018-07-20T14:57:51.765Z,45.27
2018-07-20T15:00:24.129Z,45.23
2018-07-20T15:03:01.557Z,45.77
2018-07-20T15:05:33.444Z,45.70
2018-07-20T15:08:06.566Z,45.38
2018-07-20T15:10:38.600Z,45.01
2018-07-20T15:13:13.198Z,44.48
2018-07-20T15:15:44.337Z,43.84
2018-07-20T15:18:19.754Z,43.28
2018-07-20T15:20:52.897Z,42.93
2018-07-20T15:23:25.456Z,42.51
2018-07-20T15:25:59.194Z,42.24
2018-07-20T15:28:31.934Z,41.75
2018-07-20T15:31:04.598Z,41.80
2018-07-20T15:33:35.754Z,41.69
2018-07-20T15:36:07.872Z,41.53
2018-07-20T15:38:40.104Z,41.48
2018-07-20T15:41:11.753Z,41.35
2018-07-20T15:43:45.479Z,41.59
2018-07-20T15:46:18.734Z,41.79
2018-07-20T15:48:51.921Z,42.45
2018-07-20T15:51:31.580Z,43.01
2018-07-20T15:53:56.682Z,43.92
2018-07-20T15:56:28.320Z,44.35
2018-07-20T15:59:00.713Z,44.56
2018-07-20T16:01:33.688Z,44.62
2018-07-20T16:04:07.212Z,45.06
2018-07-20T16:06:39.293Z,45.61
2018-07-20T16:09:13.021Z,46.11
2018-07-20T16:11:44.265Z,46.26
2018-07-20T16:14:15.696Z,45.99
2018-07-20T16:16:46.963Z,45.51
2018-07-20T16:19:18.261Z,45.09
2018-07-20T16:21:50.491Z,44.92
2018-07-20T16:24:23.627Z,44.85
2018-07-20T16:26:55.324Z,44.90
2018-07-20T16:29:26.516Z,44.90
2018-07-20T16:31:58.327Z,44.72
2018-07-20T16:34:30.469Z,44.68
2018-07-20T16:37:01.664Z,44.57
2018-07-20T16:39:34.542Z,44.65
2018-07-20T16:42:06.713Z,44.81
2018-07-20T16:44:40.487Z,44.92
2018-07-20T16:47:12.466Z,44.37
2018-07-20T16:49:44.470Z,43.70
2018-07-20T16:52:16.317Z,43.32
2018-07-20T16:54:48.872Z,42.59
2018-07-20T16:57:20.629Z,42.31
2018-07-20T16:59:52.393Z,41.91
2018-07-20T17:02:24.622Z,41.66
2018-07-20T17:04:57.548Z,41.38
2018-07-20T17:07:28.899Z,41.18
2018-07-20T17:10:01.691Z,40.83
2018-07-20T17:12:33.416Z,40.65
2018-07-20T17:15:08.512Z,40.73
2018-07-20T17:17:39.826Z,40.77
2018-07-20T17:20:12.540Z,41.18
2018-07-20T17:22:43.701Z,41.88
2018-07-20T17:25:16.124Z,42.34
2018-07-20T17:27:49.887Z,42.88
2018-07-20T17:30:25.826Z,43.33
2018-07-20T17:33:01.428Z,43.18
2018-07-20T17:35:34.656Z,43.18
2018-07-20T17:38:07.192Z,43.20
2018-07-20T17:40:40.037Z,43.45
2018-07-20T17:43:11.836Z,43.58
2018-07-20T17:45:44.631Z,43.39
2018-07-20T17:48:18.702Z,43.37
2018-07-20T17:50:50.421Z,43.67
2018-07-20T17:53:21.518Z,43.52
2018-07-20T17:55:53.794Z,43.10
2018-07-20T17:58:26.895Z,42.95
2018-07-20T18:00:59.449Z,42.99
2018-07-20T18:03:30.606Z,42.80
2018-07-20T18:06:02.234Z,42.46
2018-07-20T18:08:33.404Z,42.28
2018-07-20T18:11:05.435Z,42.07
2018-07-20T18:13:38.510Z,41.88
2018-07-20T18:16:13.854Z,41.47
2018-07-20T18:18:45.063Z,41.11
2018-07-20T18:21:17.813Z,40.74
2018-07-20T18:23:48.861Z,40.59
2018-07-20T18:26:21.444Z,40.53
2018-07-20T18:28:52.679Z,40.30
2018-07-20T18:31:24.112Z,40.06
2018-07-20T18:33:55.258Z,39.85
2018-07-20T18:36:26.607Z,39.79
2018-07-20T18:38:58.769Z,39.80
2018-07-20T18:41:30.420Z,39.75
2018-07-20T18:44:02.440Z,39.63
2018-07-20T18:46:33.942Z,39.49
2018-07-20T18:49:05.328Z,39.27
2018-07-20T18:51:38.592Z,39.01
2018-07-20T18:54:10.614Z,38.80
2018-07-20T18:56:43.166Z,38.64
2018-07-20T18:59:16.835Z,38.55
2018-07-20T19:01:50.257Z,38.42
2018-07-20T19:04:22.159Z,38.27
2018-07-20T19:06:55.781Z,38.11
2018-07-20T19:09:27.859Z,38.05
2018-07-20T19:12:00.991Z,37.89
2018-07-20T19:14:34.712Z,37.70
2018-07-20T19:17:08.504Z,37.55
2018-07-20T19:19:43.033Z,37.40
2018-07-20T19:22:15.392Z,37.27
2018-07-20T19:24:49.131Z,37.17
2018-07-20T19:27:22.443Z,37.21
2018-07-20T19:29:56.521Z,37.35
2018-07-20T19:32:33.733Z,37.40
2018-07-20T19:35:06.039Z,37.24
2018-07-20T19:37:38.225Z,36.88
2018-07-20T19:40:12.681Z,36.49
2018-07-20T19:42:47.376Z,36.31
2018-07-20T19:45:20.357Z,36.20
2018-07-20T19:47:55.506Z,36.06
2018-07-20T19:50:29.344Z,35.85
2018-07-20T19:53:03.124Z,35.69
2018-07-20T19:55:36.027Z,35.67
2018-07-20T19:58:10.233Z,35.44
2018-07-20T20:00:42.172Z,35.17
2018-07-20T20:03:15.177Z,35.17
2018-07-20T20:05:46.479Z,35.01
2018-07-20T20:08:18.905Z,34.79
2018-07-20T20:10:53.217Z,34.72
2018-07-20T20:13:26.490Z,34.68
2018-07-20T20:15:57.814Z,34.69
2018-07-20T20:18:29.323Z,34.57
2018-07-20T20:21:03.990Z,34.43
2018-07-20T20:23:37.188Z,34.36
2018-07-20T20:26:11.223Z,34.01
2018-07-20T20:28:42.987Z,34.04
2018-07-20T20:31:13.261Z,33.97
2018-07-20T20:33:44.935Z,33.88
2018-07-20T20:36:17.803Z,33.88
2018-07-20T20:38:48.994Z,33.86
2018-07-20T20:41:20.769Z,33.88
2018-07-20T20:44:01.623Z,33.89
2018-07-20T20:46:36.137Z,33.90
2018-07-20T20:49:09.037Z,33.76
2018-07-20T20:51:41.219Z,33.85
2018-07-20T20:54:11.633Z,33.81
2018-07-20T20:56:43.844Z,33.78
2018-07-20T20:59:16.709Z,33.81
2018-07-20T21:01:49.382Z,33.74
2018-07-20T21:04:19.633Z,33.69
2018-07-20T21:06:52.255Z,33.58
2018-07-20T21:09:23.398Z,33.52
2018-07-20T21:11:58.140Z,33.52
2018-07-20T21:14:41.463Z,33.31
2018-07-20T21:17:16.009Z,33.25
2018-07-20T21:19:50.590Z,33.20
2018-07-20T21:22:22.928Z,33.28
2018-07-20T21:24:53.519Z,33.44
2018-07-20T21:27:25.650Z,33.60
2018-07-20T21:30:00.744Z,33.75
2018-07-20T21:32:31.906Z,33.83
2018-07-20T21:35:07.607Z,33.85
2018-07-20T21:37:39.388Z,33.90
2018-07-20T21:40:09.720Z,33.87
2018-07-20T21:42:40.054Z,33.87
2018-07-20T21:45:13.659Z,33.75
2018-07-20T21:47:46.606Z,33.67
2018-07-20T21:50:17.302Z,33.72
2018-07-20T21:52:47.613Z,33.80
2018-07-20T21:55:20.548Z,33.84
2018-07-20T21:57:53.434Z,33.91
2018-07-20T22:00:26.944Z,33.93
2018-07-20T22:02:59.964Z,33.87
2018-07-20T22:05:33.665Z,33.82
2018-07-20T22:08:06.045Z,33.86
2018-07-20T22:10:36.383Z,34.01
2018-07-20T22:13:08.073Z,33.92
2018-07-20T22:15:42.479Z,33.79
2018-07-20T22:18:16.350Z,33.86
2018-07-20T22:20:48.097Z,33.95
2018-07-20T22:23:21.210Z,34.05
2018-07-20T22:25:55.590Z,33.93
2018-07-20T22:28:28.731Z,33.86
2018-07-20T22:31:03.456Z,33.82
2018-07-20T22:33:36.524Z,33.77
2018-07-20T22:36:07.778Z,33.40
2018-07-20T22:38:39.263Z,33.24
2018-07-20T22:41:10.304Z,33.09
2018-07-20T22:43:44.459Z,32.92
2018-07-20T22:46:18.722Z,32.88
2018-07-20T22:48:50.301Z,32.82
2018-07-20T22:51:20.727Z,32.76
2018-07-20T22:53:51.484Z,32.77
2018-07-20T22:56:25.302Z,32.69
2018-07-20T22:58:57.463Z,32.63
2018-07-20T23:01:32.139Z,32.60
2018-07-20T23:04:11.223Z,32.53
2018-07-20T23:06:45.252Z,32.50
2018-07-20T23:09:20.283Z,32.33
2018-07-20T23:11:55.256Z,32.60
2018-07-20T23:14:29.384Z,32.74
2018-07-20T23:17:00.905Z,32.80
2018-07-20T23:19:34.189Z,32.77
2018-07-20T23:22:15.624Z,32.91
2018-07-20T23:24:51.806Z,33.00
2018-07-20T23:27:26.387Z,32.98
2018-07-20T23:30:25.558Z,33.03
2018-07-20T23:32:59.650Z,32.99
2018-07-20T23:35:31.938Z,32.94
2018-07-20T23:38:03.204Z,33.06
2018-07-20T23:40:36.484Z,33.28
2018-07-20T23:43:14.312Z,33.25
2018-07-20T23:45:48.225Z,33.20
2018-07-20T23:48:24.056Z,33.10
2018-07-20T23:51:00.525Z,33.06
2018-07-20T23:53:33.065Z,33.09
2018-07-20T23:56:04.572Z,33.10
2018-07-20T23:58:42.011Z,33.11
